Time;durP1;ratioP1;P1;durP2;ratioP2;P2;SDS_P1;SDS_P2;PMS_P1;PMS_P2;Temp;Humidity;BMP_temperature;BMP_pressure;BME280_temperature;BME280_humidity;BME280_pressure;Samples;Min_cycle;Max_cycle;Signal;HPM_P1;HPM_P2
2020/12/06 00:02:26;;;;;;;13.30;11.13;;;5.10;99.90;;;;;;5111596;28;20205;-81
2020/12/06 00:04:52;;;;;;;14.13;11.37;;;5.10;99.90;;;;;;5111718;28;20672;-81
2020/12/06 00:07:18;;;;;;;13.93;11.63;;;5.10;99.90;;;;;;5110936;28;20388;-82
2020/12/06 00:09:45;;;;;;;12.47;11.00;;;5.10;99.90;;;;;;5111945;28;20230;-81
2020/12/06 00:12:11;;;;;;;13.13;10.33;;;5.10;99.90;;;;;;5112100;28;20213;-81
2020/12/06 00:14:37;;;;;;;12.63;10.97;;;5.10;99.90;;;;;;5111714;28;20253;-79
2020/12/06 00:17:05;;;;;;;12.13;10.87;;;5.20;99.90;;;;;;5111627;28;20210;-79
2020/12/06 00:19:31;;;;;;;12.73;11.30;;;5.10;99.90;;;;;;5111270;28;20686;-80
2020/12/06 00:21:57;;;;;;;13.03;11.43;;;5.10;99.90;;;;;;5111831;28;20727;-79
2020/12/06 00:24:24;;;;;;;14.00;10.93;;;5.20;99.90;;;;;;5111591;28;20282;-80
2020/12/06 00:26:51;;;;;;;14.00;11.27;;;5.20;99.90;;;;;;5111666;28;20233;-78
2020/12/06 00:29:18;;;;;;;16.03;11.67;;;5.10;99.90;;;;;;5110801;28;20205;-80
2020/12/06 00:31:48;;;;;;;14.70;12.43;;;5.10;99.90;;;;;;5111556;28;20209;-80
2020/12/06 00:34:15;;;;;;;15.63;11.43;;;5.10;99.90;;;;;;5111375;28;20213;-79
2020/12/06 00:36:41;;;;;;;14.23;11.50;;;5.10;99.90;;;;;;5111313;28;20727;-79
2020/12/06 00:39:08;;;;;;;16.47;12.50;;;5.20;99.90;;;;;;5111076;28;20206;-80
2020/12/06 00:41:34;;;;;;;14.47;11.87;;;5.20;99.90;;;;;;5111248;28;20206;-80
2020/12/06 00:44:00;;;;;;;15.17;11.93;;;5.20;99.90;;;;;;5111308;28;20236;-80
2020/12/06 00:46:27;;;;;;;14.23;11.80;;;5.20;99.90;;;;;;5111170;28;20216;-79
2020/12/06 00:48:53;;;;;;;13.63;11.57;;;5.20;99.90;;;;;;5111327;28;20566;-80
2020/12/06 00:51:20;;;;;;;16.97;12.50;;;5.20;99.90;;;;;;5110785;28;20230;-81
2020/12/06 00:53:46;;;;;;;14.80;12.00;;;5.20;99.90;;;;;;5110699;28;20225;-81
2020/12/06 00:56:17;;;;;;;14.47;12.03;;;5.10;99.90;;;;;;5111211;28;20639;-82
2020/12/06 00:58:43;;;;;;;15.10;12.27;;;5.10;99.90;;;;;;5110381;28;20296;-83
2020/12/06 01:01:10;;;;;;;15.90;12.47;;;5.10;99.90;;;;;;5100400;27;20242;-82
2020/12/06 01:03:36;;;;;;;17.20;12.60;;;5.10;99.90;;;;;;5108347;28;20947;-80
2020/12/06 01:06:02;;;;;;;16.70;12.20;;;5.10;99.90;;;;;;5110789;28;20202;-79
2020/12/06 01:08:29;;;;;;;18.50;13.60;;;5.10;99.90;;;;;;5110593;28;20452;-81
2020/12/06 01:10:56;;;;;;;18.13;13.60;;;5.10;99.90;;;;;;5110484;28;20295;-80
2020/12/06 01:13:22;;;;;;;16.43;13.57;;;5.10;99.90;;;;;;5110477;27;20293;-80
2020/12/06 01:15:48;;;;;;;15.40;12.90;;;5.10;99.90;;;;;;5110570;28;20202;-80
2020/12/06 01:18:15;;;;;;;17.93;13.40;;;5.10;99.90;;;;;;5110097;28;20301;-80
2020/12/06 01:20:41;;;;;;;17.97;14.50;;;5.10;99.90;;;;;;5110527;28;20301;-84
2020/12/06 01:23:07;;;;;;;18.37;14.47;;;5.10;99.90;;;;;;5110917;28;20202;-84
2020/12/06 01:25:35;;;;;;;16.50;14.07;;;5.10;99.90;;;;;;5110539;28;20206;-84
2020/12/06 01:28:01;;;;;;;16.70;13.00;;;5.10;99.90;;;;;;5110910;28;20581;-84
2020/12/06 01:30:27;;;;;;;19.20;13.63;;;5.10;99.90;;;;;;5110400;27;20236;-84
2020/12/06 01:32:54;;;;;;;17.27;13.57;;;5.00;99.90;;;;;;5110546;28;20646;-78
2020/12/06 01:35:20;;;;;;;16.30;13.00;;;5.00;99.90;;;;;;5110104;28;20312;-78
2020/12/06 01:37:46;;;;;;;18.03;13.80;;;5.00;99.90;;;;;;5110051;28;20584;-79
2020/12/06 01:40:13;;;;;;;16.63;13.90;;;5.00;99.90;;;;;;5110255;28;20236;-78
2020/12/06 01:42:40;;;;;;;18.03;14.47;;;5.00;99.90;;;;;;5109883;28;20214;-79
2020/12/06 01:45:06;;;;;;;18.47;14.60;;;5.00;99.90;;;;;;5109837;28;20560;-79
2020/12/06 01:47:33;;;;;;;18.87;14.07;;;5.00;99.90;;;;;;5109779;27;20679;-78
2020/12/06 01:49:59;;;;;;;17.43;14.10;;;5.00;99.90;;;;;;5109895;28;20449;-79
2020/12/06 01:52:29;;;;;;;19.10;14.50;;;5.00;99.90;;;;;;5109563;28;20653;-79
2020/12/06 01:54:55;;;;;;;19.07;14.27;;;5.00;99.90;;;;;;5109443;28;20667;-79
2020/12/06 01:57:22;;;;;;;18.23;14.30;;;5.00;99.90;;;;;;5109298;28;20614;-78
2020/12/06 01:59:49;;;;;;;19.00;15.20;;;5.00;99.90;;;;;;5109678;28;20206;-79
2020/12/06 02:02:16;;;;;;;18.33;14.60;;;5.00;99.90;;;;;;5109745;28;20559;-81
2020/12/06 02:04:44;;;;;;;18.13;14.27;;;5.00;99.90;;;;;;5109786;28;20244;-82
2020/12/06 02:07:11;;;;;;;20.23;14.67;;;4.90;99.90;;;;;;5109643;28;20209;-80
2020/12/06 02:09:37;;;;;;;17.57;14.30;;;5.00;99.90;;;;;;5109484;28;20233;-80
2020/12/06 02:12:07;;;;;;;20.07;15.13;;;5.00;99.90;;;;;;5109538;28;20309;-80
2020/12/06 02:14:33;;;;;;;21.20;15.17;;;5.00;99.90;;;;;;5099928;28;20214;-81
2020/12/06 02:17:00;;;;;;;19.47;15.47;;;5.00;99.90;;;;;;5088961;28;20209;-81
2020/12/06 02:19:27;;;;;;;20.50;14.57;;;5.10;99.90;;;;;;5088096;28;20710;-80
2020/12/06 02:21:54;;;;;;;20.00;15.57;;;5.10;99.90;;;;;;5088974;28;20316;-80
2020/12/06 02:24:21;;;;;;;19.47;15.03;;;5.10;99.90;;;;;;5088950;28;20290;-79
2020/12/06 02:26:49;;;;;;;19.27;15.10;;;5.20;99.90;;;;;;5089185;28;20204;-80
2020/12/06 02:29:16;;;;;;;21.10;15.93;;;5.20;99.90;;;;;;5088879;28;20297;-79
2020/12/06 02:31:43;;;;;;;21.63;15.87;;;5.20;99.90;;;;;;5088837;28;20292;-80
2020/12/06 02:34:10;;;;;;;20.47;15.57;;;5.20;99.90;;;;;;5089011;28;20591;-80
2020/12/06 02:36:37;;;;;;;20.67;15.77;;;5.30;99.90;;;;;;5088518;28;20290;-80
2020/12/06 02:39:07;;;;;;;20.07;15.50;;;5.30;99.90;;;;;;5088787;28;20289;-80
2020/12/06 02:41:37;;;;;;;20.40;15.27;;;5.30;99.90;;;;;;5088606;28;20302;-80
2020/12/06 02:44:04;;;;;;;18.50;15.37;;;5.30;99.90;;;;;;5089086;28;20209;-81
2020/12/06 02:46:31;;;;;;;21.23;15.70;;;5.30;99.90;;;;;;5088820;28;20207;-80
2020/12/06 02:48:58;;;;;;;19.87;14.83;;;5.30;99.90;;;;;;5088334;28;20210;-80
2020/12/06 02:51:25;;;;;;;21.60;16.13;;;5.30;99.90;;;;;;5088681;28;20319;-80
2020/12/06 02:53:51;;;;;;;21.03;15.17;;;5.30;99.90;;;;;;5088304;28;20238;-80
2020/12/06 02:56:18;;;;;;;21.90;16.50;;;5.40;99.90;;;;;;5088779;28;20267;-81
2020/12/06 02:58:45;;;;;;;20.23;14.97;;;5.40;99.90;;;;;;5088398;28;20211;-80
2020/12/06 03:01:12;;;;;;;21.27;15.37;;;5.40;99.90;;;;;;5088382;28;20591;-80
2020/12/06 03:03:38;;;;;;;22.23;16.33;;;5.50;99.90;;;;;;5088576;28;20566;-81
2020/12/06 03:06:04;;;;;;;20.13;15.10;;;5.50;99.90;;;;;;5088537;28;20677;-82
2020/12/06 03:08:31;;;;;;;22.70;15.20;;;5.50;99.90;;;;;;5088770;28;20932;-81
2020/12/06 03:10:57;;;;;;;20.23;15.20;;;5.50;99.90;;;;;;5088506;28;20707;-81
2020/12/06 03:13:24;;;;;;;20.93;15.87;;;5.50;99.90;;;;;;5088911;28;20207;-82
2020/12/06 03:15:51;;;;;;;18.03;15.00;;;5.50;99.90;;;;;;5088841;28;20639;-81
2020/12/06 03:18:17;;;;;;;23.17;15.37;;;5.50;99.90;;;;;;5088509;28;20286;-82
2020/12/06 03:20:43;;;;;;;18.77;14.47;;;5.50;99.90;;;;;;5088489;28;20294;-80
2020/12/06 03:23:10;;;;;;;20.17;15.10;;;5.60;99.90;;;;;;5088512;28;20210;-80
2020/12/06 03:25:36;;;;;;;21.20;15.40;;;5.60;99.90;;;;;;5088273;28;20213;-80
2020/12/06 03:28:02;;;;;;;20.23;15.23;;;5.50;99.90;;;;;;5088733;28;20203;-80
2020/12/06 03:30:30;;;;;;;20.37;14.80;;;5.60;99.90;;;;;;5089437;28;20218;-81
2020/12/06 03:32:56;;;;;;;18.17;14.83;;;5.60;99.90;;;;;;5091748;28;20737;-82
2020/12/06 03:35:22;;;;;;;20.80;14.93;;;5.60;99.90;;;;;;5092286;28;20209;-80
2020/12/06 03:37:49;;;;;;;19.37;14.97;;;5.60;99.90;;;;;;5092243;28;20616;-80
2020/12/06 03:40:16;;;;;;;20.50;14.40;;;5.60;99.90;;;;;;5091701;28;20207;-81
2020/12/06 03:42:42;;;;;;;19.67;14.30;;;5.60;99.90;;;;;;5091950;28;20202;-81
2020/12/06 03:45:09;;;;;;;18.97;13.77;;;5.60;99.90;;;;;;5091631;28;20662;-81
2020/12/06 03:47:36;;;;;;;16.93;13.80;;;5.60;99.90;;;;;;5091741;28;20679;-80
2020/12/06 03:50:03;;;;;;;17.77;14.17;;;5.60;99.90;;;;;;5091877;28;20231;-79
2020/12/06 03:52:30;;;;;;;21.33;15.00;;;5.60;99.90;;;;;;5091243;28;20260;-80
2020/12/06 03:54:56;;;;;;;18.33;13.53;;;5.70;99.90;;;;;;5091621;28;20199;-79
2020/12/06 03:57:22;;;;;;;16.03;13.07;;;5.70;99.90;;;;;;5091462;28;20209;-79
2020/12/06 03:59:49;;;;;;;19.17;13.80;;;5.60;99.90;;;;;;5091140;28;20772;-79
2020/12/06 04:02:15;;;;;;;17.30;13.30;;;5.60;99.90;;;;;;5091674;28;20207;-80
2020/12/06 04:04:43;;;;;;;18.47;13.73;;;5.70;99.90;;;;;;5091678;28;20209;-80
2020/12/06 04:07:09;;;;;;;18.03;12.70;;;5.70;99.90;;;;;;5091574;28;20290;-80
2020/12/06 04:09:36;;;;;;;17.13;12.77;;;5.70;99.90;;;;;;5091248;28;20216;-80
2020/12/06 04:12:02;;;;;;;18.30;13.63;;;5.70;99.90;;;;;;5091203;28;20207;-80
2020/12/06 04:14:28;;;;;;;18.87;13.37;;;5.70;99.90;;;;;;5091271;28;20213;-80
2020/12/06 04:16:55;;;;;;;15.03;13.07;;;5.70;99.90;;;;;;5091397;28;20290;-80
2020/12/06 04:19:21;;;;;;;17.30;12.67;;;5.70;99.90;;;;;;5091447;28;20297;-80
2020/12/06 04:21:48;;;;;;;16.40;12.43;;;5.70;99.90;;;;;;5091252;28;20211;-80
2020/12/06 04:24:15;;;;;;;16.50;12.50;;;5.70;99.90;;;;;;5090977;28;20695;-80
2020/12/06 04:26:42;;;;;;;16.70;13.10;;;5.70;99.90;;;;;;5091111;28;20317;-80
2020/12/06 04:29:08;;;;;;;13.47;11.77;;;5.70;99.90;;;;;;5091217;28;20290;-80
2020/12/06 04:31:35;;;;;;;14.93;12.10;;;5.80;99.90;;;;;;5090948;28;20228;-80
2020/12/06 04:34:01;;;;;;;15.10;12.10;;;5.80;99.90;;;;;;5091335;28;20213;-79
2020/12/06 04:36:27;;;;;;;14.67;12.00;;;5.80;99.90;;;;;;5090970;28;20203;-79
2020/12/06 04:38:55;;;;;;;16.23;12.07;;;5.80;99.90;;;;;;5091058;28;20653;-79
2020/12/06 04:41:23;;;;;;;16.57;12.73;;;5.80;99.90;;;;;;5090534;28;20290;-81
2020/12/06 04:43:49;;;;;;;14.30;12.37;;;5.80;99.90;;;;;;5090651;28;20616;-80
2020/12/06 04:46:16;;;;;;;14.63;12.00;;;5.80;99.90;;;;;;5090846;28;20252;-80
2020/12/06 04:48:56;;;;;;;14.93;12.07;;;5.80;99.90;;;;;;5091217;28;20661;-83
2020/12/06 04:51:26;;;;;;;15.77;13.07;;;5.80;99.90;;;;;;5091262;28;20222;-82
2020/12/06 04:54:01;;;;;;;15.07;12.03;;;5.80;99.90;;;;;;5090373;28;20266;-83
2020/12/06 04:56:29;;;;;;;17.53;12.67;;;5.80;99.90;;;;;;5090908;28;20199;-81
2020/12/06 04:58:58;;;;;;;16.27;12.30;;;5.80;99.90;;;;;;5090533;28;20207;-82
2020/12/06 05:01:29;;;;;;;16.10;12.60;;;5.80;99.90;;;;;;5090748;28;20769;-83
2020/12/06 05:03:58;;;;;;;15.80;12.17;;;5.80;99.90;;;;;;5090945;28;20274;-83
2020/12/06 05:06:28;;;;;;;16.27;12.73;;;5.80;99.90;;;;;;5090611;28;20666;-81
2020/12/06 05:08:57;;;;;;;15.40;11.80;;;5.80;99.90;;;;;;5090356;28;20322;-81
2020/12/06 05:11:25;;;;;;;16.20;11.97;;;5.80;99.90;;;;;;5090366;28;20234;-81
2020/12/06 05:13:51;;;;;;;16.53;12.07;;;5.80;99.90;;;;;;5089938;28;20199;-80
2020/12/06 05:16:20;;;;;;;16.70;12.20;;;5.80;99.90;;;;;;5090300;28;20293;-81
2020/12/06 05:18:47;;;;;;;16.50;12.23;;;5.80;99.90;;;;;;5089745;28;20673;-81
2020/12/06 05:21:13;;;;;;;17.97;13.33;;;5.80;99.90;;;;;;5089999;28;20272;-81
2020/12/06 05:23:41;;;;;;;17.37;12.07;;;5.80;99.90;;;;;;5089818;28;20207;-80
2020/12/06 05:26:08;;;;;;;18.00;13.07;;;5.80;99.90;;;;;;5089811;28;20662;-84
2020/12/06 05:28:36;;;;;;;14.60;12.13;;;5.80;99.90;;;;;;5089747;28;20213;-81
2020/12/06 05:31:03;;;;;;;15.90;12.50;;;5.80;99.90;;;;;;5090473;28;20663;-82
2020/12/06 05:33:30;;;;;;;16.07;12.80;;;5.80;99.90;;;;;;5090472;28;20207;-83
2020/12/06 05:36:00;;;;;;;14.53;12.53;;;5.90;99.90;;;;;;5089900;28;20217;-80
2020/12/06 05:38:26;;;;;;;16.23;12.80;;;5.90;99.90;;;;;;5089851;28;20210;-80
2020/12/06 05:40:56;;;;;;;17.47;13.17;;;5.90;99.90;;;;;;5090046;28;20210;-79
2020/12/06 05:43:27;;;;;;;16.97;12.67;;;5.90;99.90;;;;;;5089826;28;20581;-80
2020/12/06 05:46:05;;;;;;;15.77;12.37;;;6.00;99.90;;;;;;5089311;28;20195;-80
2020/12/06 05:48:32;;;;;;;15.83;12.87;;;6.00;99.90;;;;;;5089789;28;20195;-80
2020/12/06 05:51:00;;;;;;;15.47;12.57;;;6.00;99.90;;;;;;5089480;28;20231;-80
2020/12/06 05:53:27;;;;;;;19.37;12.90;;;6.00;99.90;;;;;;5088512;28;20230;-80
2020/12/06 05:55:57;;;;;;;16.17;12.70;;;6.00;99.90;;;;;;5089470;28;20210;-80
2020/12/06 05:58:24;;;;;;;16.50;12.60;;;6.00;99.90;;;;;;5089369;28;20242;-80
2020/12/06 06:00:51;;;;;;;15.37;12.80;;;6.10;99.90;;;;;;5089207;28;20229;-79
2020/12/06 06:03:27;;;;;;;17.63;12.27;;;6.00;99.90;;;;;;5089600;28;20210;-79
2020/12/06 06:05:54;;;;;;;17.60;13.23;;;6.00;99.90;;;;;;5088951;28;20190;-79
2020/12/06 06:08:22;;;;;;;14.40;12.27;;;6.00;99.90;;;;;;5089277;28;20213;-80
2020/12/06 06:11:15;;;;;;;16.10;12.93;;;6.00;99.90;;;;;;5089078;28;20231;-80
2020/12/06 06:13:47;;;;;;;14.90;12.47;;;6.00;99.90;;;;;;5088928;28;20210;-80
2020/12/06 06:16:15;;;;;;;15.90;12.60;;;6.00;99.90;;;;;;5089205;28;20193;-81
2020/12/06 06:18:47;;;;;;;18.37;12.70;;;6.00;99.90;;;;;;5088758;28;20661;-80
2020/12/06 06:21:13;;;;;;;15.23;13.03;;;6.00;99.90;;;;;;5089160;28;20555;-80
2020/12/06 06:23:41;;;;;;;16.27;12.30;;;6.00;99.90;;;;;;5088869;28;20206;-79
2020/12/06 06:26:11;;;;;;;15.40;12.40;;;6.10;99.90;;;;;;5089162;28;20384;-80
2020/12/06 06:28:38;;;;;;;17.13;13.50;;;6.00;99.90;;;;;;5088990;28;20202;-78
2020/12/06 06:31:04;;;;;;;14.67;12.53;;;6.00;99.90;;;;;;5089065;28;20236;-82
2020/12/06 06:33:33;;;;;;;15.17;12.20;;;6.00;99.90;;;;;;5089246;28;20249;-82
2020/12/06 06:36:01;;;;;;;16.73;12.57;;;6.00;99.90;;;;;;5089556;28;20766;-81
2020/12/06 06:38:27;;;;;;;16.40;13.00;;;6.00;99.90;;;;;;5088821;28;20549;-81
2020/12/06 06:40:55;;;;;;;15.07;11.90;;;6.10;99.90;;;;;;5088882;28;20294;-81
2020/12/06 06:43:27;;;;;;;14.83;12.40;;;6.00;99.90;;;;;;5088815;28;20210;-82
2020/12/06 06:45:55;;;;;;;16.43;12.17;;;6.00;99.90;;;;;;5088293;28;20634;-83
2020/12/06 06:48:22;;;;;;;17.50;13.07;;;6.00;99.90;;;;;;5089333;28;20572;-82
2020/12/06 06:50:48;;;;;;;17.33;12.47;;;6.00;99.90;;;;;;5089242;28;20341;-83
2020/12/06 06:53:17;;;;;;;15.53;12.67;;;6.00;99.90;;;;;;5088827;28;20242;-81
2020/12/06 06:55:51;;;;;;;15.67;12.63;;;6.00;99.90;;;;;;5088366;28;20291;-81
2020/12/06 06:58:22;;;;;;;18.47;13.17;;;6.00;99.90;;;;;;5088816;28;20292;-80
2020/12/06 07:00:48;;;;;;;15.83;12.40;;;6.00;99.90;;;;;;5094177;28;20222;-81
2020/12/06 07:03:18;;;;;;;14.67;12.87;;;6.00;99.90;;;;;;5109069;28;20206;-81
2020/12/06 07:05:44;;;;;;;15.80;12.77;;;6.00;99.90;;;;;;5104429;28;20210;-78
2020/12/06 07:08:12;;;;;;;15.23;12.27;;;6.00;99.90;;;;;;5092059;28;20210;-80
2020/12/06 07:10:40;;;;;;;14.20;12.13;;;6.00;99.90;;;;;;5092043;28;20268;-80
2020/12/06 07:13:07;;;;;;;16.47;12.90;;;6.10;99.90;;;;;;5101676;28;20198;-78
2020/12/06 07:15:34;;;;;;;14.77;12.20;;;6.10;99.90;;;;;;5112383;28;20656;-78
2020/12/06 07:18:01;;;;;;;17.13;13.17;;;6.10;99.90;;;;;;5112691;28;20627;-78
2020/12/06 07:20:28;;;;;;;16.20;12.67;;;6.10;99.90;;;;;;5112072;28;20293;-78
2020/12/06 07:22:55;;;;;;;14.57;11.90;;;6.10;99.90;;;;;;5112669;28;20216;-80
2020/12/06 07:25:23;;;;;;;14.43;12.00;;;6.10;99.90;;;;;;5111097;28;20213;-81
2020/12/06 07:27:50;;;;;;;15.40;11.87;;;6.20;99.90;;;;;;5092116;28;20775;-80
2020/12/06 07:30:19;;;;;;;15.27;11.83;;;6.20;99.90;;;;;;5091823;28;20206;-76
2020/12/06 07:32:45;;;;;;;15.30;11.93;;;6.20;99.90;;;;;;5091898;28;20207;-77
2020/12/06 07:35:14;;;;;;;15.07;11.57;;;6.20;99.90;;;;;;5091730;28;20661;-80
2020/12/06 07:37:40;;;;;;;14.20;11.50;;;6.20;99.90;;;;;;5091550;28;20210;-78
2020/12/06 07:40:08;;;;;;;16.20;11.63;;;6.30;99.90;;;;;;5091824;28;20207;-79
2020/12/06 07:42:35;;;;;;;16.50;11.90;;;6.30;99.90;;;;;;5092062;28;20294;-82
2020/12/06 07:45:05;;;;;;;15.47;11.57;;;6.30;99.90;;;;;;5091806;28;20213;-79
2020/12/06 07:47:31;;;;;;;13.23;11.27;;;6.40;99.90;;;;;;5091779;28;20229;-78
2020/12/06 07:49:59;;;;;;;13.90;11.00;;;6.40;99.90;;;;;;5094126;28;20289;-77
2020/12/06 07:52:27;;;;;;;15.00;11.73;;;6.40;99.90;;;;;;5091619;28;20325;-78
2020/12/06 07:54:55;;;;;;;13.63;11.00;;;6.40;99.90;;;;;;5091529;28;20191;-80
2020/12/06 07:57:30;;;;;;;16.23;11.40;;;6.40;99.90;;;;;;5091706;28;20210;-80
2020/12/06 07:59:59;;;;;;;14.03;11.00;;;6.40;99.90;;;;;;5091608;28;20236;-79
2020/12/06 08:02:31;;;;;;;13.83;10.93;;;6.40;99.90;;;;;;5091845;28;20286;-79
2020/12/06 08:04:58;;;;;;;13.40;10.77;;;6.50;99.90;;;;;;5102516;28;20309;-81
2020/12/06 08:07:31;;;;;;;12.87;10.53;;;6.50;99.90;;;;;;5111574;28;20202;-82
2020/12/06 08:10:00;;;;;;;13.03;10.90;;;6.50;99.90;;;;;;5102408;28;20190;-80
2020/12/06 08:12:31;;;;;;;14.73;11.20;;;6.50;99.90;;;;;;5107381;28;20567;-82
2020/12/06 08:15:02;;;;;;;12.97;10.47;;;6.60;99.90;;;;;;5101763;28;20225;-82
2020/12/06 08:17:43;;;;;;;10.93;9.73;;;6.60;99.90;;;;;;5099013;28;20213;-82
2020/12/06 08:20:10;;;;;;;13.23;11.30;;;6.60;99.90;;;;;;5106855;28;20199;-80
2020/12/06 08:22:55;;;;;;;11.57;10.13;;;6.60;99.90;;;;;;5089299;28;20213;-81
2020/12/06 08:25:23;;;;;;;15.23;11.17;;;6.70;99.90;;;;;;5089149;28;20281;-80
2020/12/06 08:27:50;;;;;;;15.17;11.10;;;6.70;99.90;;;;;;5088957;28;20209;-79
2020/12/06 08:30:18;;;;;;;13.87;9.93;;;6.70;99.90;;;;;;5088687;28;20211;-80
2020/12/06 08:32:52;;;;;;;12.77;10.50;;;6.80;99.90;;;;;;5088637;28;20265;-82
2020/12/06 08:35:18;;;;;;;12.70;10.43;;;6.80;99.90;;;;;;5089183;28;20563;-81
2020/12/06 08:37:45;;;;;;;12.37;10.13;;;6.80;99.90;;;;;;5089104;28;20548;-81
2020/12/06 08:40:11;;;;;;;15.10;12.73;;;6.90;99.90;;;;;;5100264;28;20567;-79
2020/12/06 08:42:38;;;;;;;34.90;31.20;;;6.80;99.90;;;;;;5098140;28;20692;-78
2020/12/06 08:45:05;;;;;;;13.30;10.53;;;6.90;99.90;;;;;;5096726;28;20203;-82
2020/12/06 08:47:41;;;;;;;10.53;9.23;;;6.90;99.90;;;;;;5090421;28;20577;-81
2020/12/06 08:50:11;;;;;;;13.07;10.10;;;7.00;99.90;;;;;;5088484;28;20214;-83
2020/12/06 08:52:38;;;;;;;11.70;9.93;;;7.00;99.90;;;;;;5088200;28;20239;-81
2020/12/06 08:55:27;;;;;;;11.37;9.50;;;7.00;99.90;;;;;;5088082;28;20210;-82
2020/12/06 08:57:55;;;;;;;11.93;10.27;;;7.00;99.90;;;;;;5087890;28;20225;-83
2020/12/06 09:00:21;;;;;;;10.13;9.10;;;7.00;99.90;;;;;;5087178;28;20258;-82
2020/12/06 09:02:48;;;;;;;10.93;9.80;;;7.10;99.90;;;;;;5086421;28;20260;-82
2020/12/06 09:05:15;;;;;;;10.70;9.60;;;7.20;99.90;;;;;;5093914;28;20604;-81
2020/12/06 09:07:42;;;;;;;11.70;9.07;;;7.20;99.90;;;;;;5106979;28;20210;-82
2020/12/06 09:10:09;;;;;;;11.40;9.13;;;7.20;99.90;;;;;;5103588;28;20738;-82
2020/12/06 09:12:36;;;;;;;11.13;9.93;;;7.30;99.90;;;;;;5094034;28;20226;-82
2020/12/06 09:15:04;;;;;;;10.13;9.03;;;7.40;99.90;;;;;;5095466;28;20210;-82
2020/12/06 09:17:30;;;;;;;11.53;9.23;;;7.50;99.90;;;;;;5106758;28;20206;-83
2020/12/06 09:19:57;;;;;;;10.07;9.07;;;7.50;99.90;;;;;;5101833;28;20205;-82
2020/12/06 09:22:24;;;;;;;11.50;8.97;;;7.70;99.90;;;;;;5091823;28;20195;-82
2020/12/06 09:24:50;;;;;;;10.73;9.60;;;7.70;99.90;;;;;;5085719;28;20203;-82
2020/12/06 09:27:17;;;;;;;10.87;9.17;;;7.80;99.90;;;;;;5085706;28;20209;-82
2020/12/06 09:29:43;;;;;;;12.43;10.30;;;7.90;99.90;;;;;;5083454;28;20203;-82
2020/12/06 09:32:10;;;;;;;10.20;9.20;;;7.90;99.90;;;;;;5104051;28;20690;-82
2020/12/06 09:34:36;;;;;;;10.37;9.30;;;8.00;99.90;;;;;;5106003;28;20217;-81
2020/12/06 09:37:02;;;;;;;9.93;8.93;;;8.20;99.90;;;;;;5095673;28;20210;-82
2020/12/06 09:39:30;;;;;;;12.17;9.33;;;8.30;99.90;;;;;;5105318;28;20242;-82
2020/12/06 09:41:56;;;;;;;11.63;8.77;;;8.30;99.90;;;;;;5105398;28;20766;-82
2020/12/06 09:44:22;;;;;;;11.20;9.63;;;8.30;99.90;;;;;;5105454;28;20626;-83
2020/12/06 09:46:49;;;;;;;10.80;8.30;;;8.40;99.90;;;;;;5095658;28;20194;-82
2020/12/06 09:49:15;;;;;;;9.67;8.70;;;8.40;99.90;;;;;;5102180;28;20198;-81
2020/12/06 09:51:42;;;;;;;9.83;8.63;;;8.50;99.90;;;;;;5105684;28;20233;-82
2020/12/06 09:54:08;;;;;;;10.30;9.20;;;8.60;99.90;;;;;;5105612;28;20234;-83
2020/12/06 09:56:35;;;;;;;11.27;8.30;;;8.60;99.90;;;;;;5105763;28;20202;-82
2020/12/06 09:59:02;;;;;;;9.37;8.37;;;8.70;99.90;;;;;;5105823;28;20778;-82
2020/12/06 10:01:28;;;;;;;12.73;9.37;;;8.70;99.90;;;;;;5101278;28;20237;-84
2020/12/06 10:03:54;;;;;;;10.83;8.83;;;8.70;99.90;;;;;;5090586;28;20208;-81
2020/12/06 10:06:25;;;;;;;10.33;9.23;;;8.70;99.90;;;;;;5094648;28;20465;-82
2020/12/06 10:08:51;;;;;;;9.43;8.53;;;8.80;99.90;;;;;;5104529;28;20321;-83
2020/12/06 10:11:18;;;;;;;9.77;8.30;;;8.80;99.90;;;;;;5094372;28;20316;-85
2020/12/06 10:13:46;;;;;;;11.17;8.60;;;8.90;99.90;;;;;;5095989;28;20226;-83
2020/12/06 10:16:14;;;;;;;11.37;9.20;;;9.00;99.90;;;;;;5084777;28;20202;-80
2020/12/06 10:18:40;;;;;;;10.20;8.40;;;9.00;99.90;;;;;;5084585;28;20704;-81
2020/12/06 10:21:07;;;;;;;10.87;8.47;;;9.10;99.90;;;;;;5084992;28;20564;-83
2020/12/06 10:23:33;;;;;;;11.27;8.70;;;9.00;99.90;;;;;;5096949;28;20258;-82
2020/12/06 10:26:00;;;;;;;9.77;8.77;;;9.10;99.90;;;;;;5094454;28;20748;-83
2020/12/06 10:28:26;;;;;;;10.97;8.87;;;9.10;99.90;;;;;;5095961;28;20289;-83
2020/12/06 10:30:53;;;;;;;9.87;8.73;;;9.10;99.90;;;;;;5093693;28;20250;-82
2020/12/06 10:33:20;;;;;;;10.53;8.40;;;9.10;99.90;;;;;;5094345;28;20230;-81
2020/12/06 10:35:46;;;;;;;9.53;8.63;;;9.10;99.90;;;;;;5102720;28;20233;-81
2020/12/06 10:38:13;;;;;;;9.70;8.70;;;9.10;99.90;;;;;;5106561;28;20310;-84
2020/12/06 10:40:40;;;;;;;10.23;8.47;;;9.10;99.90;;;;;;5105952;28;20209;-82
2020/12/06 10:43:06;;;;;;;9.03;8.13;;;9.10;99.90;;;;;;5106215;28;20610;-84
2020/12/06 10:45:34;;;;;;;10.37;7.83;;;9.20;99.90;;;;;;5092018;28;20217;-78
2020/12/06 10:48:02;;;;;;;10.47;8.07;;;9.30;99.90;;;;;;5085559;28;20207;-80
2020/12/06 10:50:29;;;;;;;10.07;8.27;;;9.30;99.90;;;;;;5085257;28;20210;-82
2020/12/06 10:52:55;;;;;;;9.57;8.67;;;9.30;99.90;;;;;;5084769;28;20250;-82
2020/12/06 10:55:24;;;;;;;9.37;8.27;;;9.30;99.90;;;;;;5085369;28;20215;-81
2020/12/06 10:57:51;;;;;;;9.40;8.03;;;9.30;99.90;;;;;;5084796;28;20348;-82
2020/12/06 11:00:18;;;;;;;8.97;8.10;;;9.40;99.90;;;;;;5085252;28;20331;-82
2020/12/06 11:02:44;;;;;;;12.87;8.70;;;9.40;99.90;;;;;;5084952;28;20230;-80
2020/12/06 11:05:11;;;;;;;9.97;8.20;;;9.50;99.90;;;;;;5085205;28;20217;-80
2020/12/06 11:07:38;;;;;;;9.57;8.47;;;9.50;99.90;;;;;;5085420;28;20520;-80
2020/12/06 11:10:05;;;;;;;8.47;7.60;;;9.60;99.90;;;;;;5090388;28;20208;-80
2020/12/06 11:12:31;;;;;;;10.70;8.37;;;9.50;99.90;;;;;;5087642;28;20230;-80
2020/12/06 11:14:57;;;;;;;9.53;8.00;;;9.50;99.90;;;;;;5104714;28;20672;-79
2020/12/06 11:17:24;;;;;;;9.37;8.30;;;9.50;99.90;;;;;;5105351;28;20566;-78
2020/12/06 11:19:54;;;;;;;9.67;7.60;;;9.60;99.90;;;;;;5105091;28;20228;-81
2020/12/06 11:22:21;;;;;;;11.00;7.73;;;9.60;99.90;;;;;;5105589;28;20243;-81
2020/12/06 11:24:47;;;;;;;9.00;8.10;;;9.70;99.90;;;;;;5105103;28;20574;-81
2020/12/06 11:27:14;;;;;;;8.80;7.90;;;9.70;99.90;;;;;;5104847;28;20291;-80
2020/12/06 11:29:40;;;;;;;8.97;8.07;;;9.80;99.90;;;;;;5105450;28;20546;-81
2020/12/06 11:32:06;;;;;;;8.90;7.40;;;9.70;99.90;;;;;;5104976;28;20324;-81
2020/12/06 11:34:33;;;;;;;11.80;10.07;;;9.80;99.90;;;;;;5105214;28;20210;-81
2020/12/06 11:37:00;;;;;;;8.73;7.80;;;9.80;99.90;;;;;;5105415;28;20614;-81
2020/12/06 11:39:27;;;;;;;10.70;9.60;;;9.90;99.90;;;;;;5093635;28;20285;-79
2020/12/06 11:41:55;;;;;;;19.23;17.23;;;9.90;99.90;;;;;;5097834;28;20206;-79
2020/12/06 11:44:21;;;;;;;11.20;10.03;;;9.90;99.90;;;;;;5098651;28;20202;-81
2020/12/06 11:46:48;;;;;;;8.57;7.73;;;9.90;99.90;;;;;;5099079;28;20232;-81
2020/12/06 11:49:14;;;;;;;8.90;7.97;;;9.90;99.90;;;;;;5107609;28;20220;-81
2020/12/06 11:51:41;;;;;;;8.30;7.40;;;9.90;99.90;;;;;;5109664;28;20783;-82
2020/12/06 11:54:07;;;;;;;10.03;7.57;;;9.80;99.90;;;;;;5111382;28;20724;-82
2020/12/06 11:56:35;;;;;;;10.17;9.13;;;9.80;99.90;;;;;;5112311;28;20285;-81
2020/12/06 11:59:02;;;;;;;9.37;8.37;;;9.80;99.90;;;;;;5111518;28;20313;-81
2020/12/06 12:01:28;;;;;;;8.70;7.87;;;9.70;99.90;;;;;;5111832;28;20293;-81
2020/12/06 12:03:54;;;;;;;8.70;7.90;;;9.70;99.90;;;;;;5111714;28;20210;-81
2020/12/06 12:06:21;;;;;;;9.63;7.87;;;9.70;99.90;;;;;;5112123;28;20207;-82
2020/12/06 12:08:51;;;;;;;11.47;7.87;;;9.80;99.90;;;;;;5111621;28;20297;-81
2020/12/06 12:11:18;;;;;;;8.53;7.73;;;9.80;99.90;;;;;;5111257;28;20225;-82
2020/12/06 12:13:46;;;;;;;10.40;7.60;;;9.80;99.90;;;;;;5111284;28;20631;-81
2020/12/06 12:16:12;;;;;;;8.30;7.50;;;9.80;99.90;;;;;;5110357;28;20201;-79
2020/12/06 12:18:39;;;;;;;10.87;7.60;;;9.80;99.90;;;;;;5111259;28;20304;-79
2020/12/06 12:21:05;;;;;;;9.40;7.40;;;9.80;99.90;;;;;;5110948;28;20664;-79
2020/12/06 12:23:32;;;;;;;10.10;8.33;;;9.90;99.90;;;;;;5110724;28;20306;-81
2020/12/06 12:25:58;;;;;;;8.50;7.70;;;10.00;99.90;;;;;;5110845;28;20248;-82
2020/12/06 12:28:24;;;;;;;8.17;7.30;;;10.00;99.90;;;;;;5111331;28;20218;-81
2020/12/06 12:30:52;;;;;;;8.87;7.40;;;10.00;99.90;;;;;;5111039;28;20308;-81
2020/12/06 12:33:18;;;;;;;8.50;7.60;;;10.00;99.90;;;;;;5111045;28;20274;-81
2020/12/06 12:35:45;;;;;;;8.93;8.00;;;9.90;99.90;;;;;;5111022;28;20210;-81
2020/12/06 12:38:11;;;;;;;8.43;7.63;;;9.90;99.90;;;;;;5110912;28;20198;-82
2020/12/06 12:40:37;;;;;;;9.50;8.27;;;9.90;99.90;;;;;;5110470;27;20732;-82
2020/12/06 12:43:04;;;;;;;8.90;7.37;;;9.90;99.90;;;;;;5110628;28;20206;-81